TimeCDT,TemperatureF,Dew PointF,Humidity,Sea Level PressureIn,VisibilityMPH,Wind Direction,Wind SpeedMPH,Gust SpeedMPH,PrecipitationIn,Events,Conditions,WindDirDegrees,DateUTC
12:15 AM,82.8,69.4,64,29.91,10.0,SW,6.9,-,N/A,,Clear,220,2013-09-10 05:15:00
12:35 AM,82.6,69.6,65,29.91,10.0,SW,6.9,-,N/A,,Clear,220,2013-09-10 05:35:00
12:55 AM,82.2,69.4,65,29.91,10.0,SSW,5.8,-,N/A,,Clear,200,2013-09-10 05:55:00
1:15 AM,82.4,69.4,65,29.92,10.0,SSW,5.8,-,N/A,,Clear,210,2013-09-10 06:15:00
1:35 AM,81.7,69.3,66,29.92,10.0,SW,5.8,-,N/A,,Clear,220,2013-09-10 06:35:00
1:55 AM,81.5,69.3,66,29.92,10.0,SSW,4.6,-,N/A,,Clear,210,2013-09-10 06:55:00
2:15 AM,81.1,69.1,67,29.92,10.0,SSW,5.8,-,N/A,,Clear,210,2013-09-10 07:15:00
2:35 AM,80.6,68.9,67,29.93,10.0,SSW,5.8,-,N/A,,Clear,200,2013-09-10 07:35:00
2:55 AM,80.1,68.9,69,29.94,10.0,SSW,4.6,-,N/A,,Clear,210,2013-09-10 07:55:00
3:15 AM,79.7,68.7,69,29.94,10.0,SSW,3.5,-,N/A,,Clear,210,2013-09-10 08:15:00
3:35 AM,79.7,68.4,68,29.95,10.0,SW,3.5,-,N/A,,Clear,230,2013-09-10 08:35:00
3:55 AM,79.7,68.0,67,29.95,10.0,SSW,3.5,-,N/A,,Clear,200,2013-09-10 08:55:00
4:15 AM,78.8,68.0,69,29.95,10.0,SSW,3.5,-,N/A,,Clear,200,2013-09-10 09:15:00
4:35 AM,78.3,68.2,71,29.96,10.0,Calm,Calm,-,N/A,,Clear,0,2013-09-10 09:35:00
4:45 AM,78.8,68.0,69,29.96,10.0,South,9.2,-,N/A,,Clear,190,2013-09-10 09:45:00
5:45 AM,77.0,68.0,74,29.97,10.0,SW,6.9,-,N/A,,Clear,220,2013-09-10 10:45:00
6:45 AM,77.0,66.2,69,29.99,10.0,SSW,6.9,-,N/A,,Partly Cloudy,200,2013-09-10 11:45:00
7:45 AM,77.0,66.2,69,30.01,10.0,SSW,9.2,-,N/A,,Partly Cloudy,210,2013-09-10 12:45:00
8:45 AM,80.6,66.2,61,30.02,10.0,SSW,13.8,-,N/A,,Clear,210,2013-09-10 13:45:00
9:45 AM,86.0,62.6,45,30.03,10.0,SW,11.5,-,N/A,,Clear,230,2013-09-10 14:45:00
10:45 AM,89.6,62.6,40,30.03,10.0,SW,11.5,-,N/A,,Clear,220,2013-09-10 15:45:00
11:45 AM,93.2,59.0,32,30.02,10.0,WSW,11.5,20.7,N/A,,Clear,250,2013-09-10 16:45:00
12:45 PM,95.0,57.2,28,30.02,10.0,WSW,13.8,28.8,N/A,,Clear,250,2013-09-10 17:45:00
1:45 PM,95.0,57.2,28,30.02,10.0,West,13.8,28.8,N/A,,Partly Cloudy,260,2013-09-10 18:45:00
3:45 PM,95.0,57.2,28,30.00,10.0,WSW,11.5,25.3,N/A,,Partly Cloudy,250,2013-09-10 20:45:00
4:45 PM,95.0,59.0,30,30.00,10.0,WSW,12.7,28.8,N/A,,Partly Cloudy,250,2013-09-10 21:45:00
5:45 PM,93.2,59.0,32,29.98,10.0,WSW,19.6,-,N/A,,Partly Cloudy,240,2013-09-10 22:45:00
6:45 PM,91.4,60.8,36,29.99,10.0,WSW,12.7,-,N/A,,Partly Cloudy,240,2013-09-10 23:45:00
7:45 PM,87.8,60.8,40,30.02,10.0,SSW,5.8,-,N/A,,Clear,210,2013-09-11 00:45:00
8:45 PM,87.8,60.8,40,30.03,10.0,SSW,8.1,-,N/A,,Clear,210,2013-09-11 01:45:00
9:15 PM,86.5,61.0,42,30.03,10.0,SW,3.5,-,N/A,,Clear,220,2013-09-11 02:15:00
9:35 PM,86.0,61.0,43,30.03,10.0,SW,4.6,-,N/A,,Clear,220,2013-09-11 02:35:00
9:45 PM,86.0,60.8,43,30.03,10.0,WSW,6.9,-,N/A,,Clear,240,2013-09-11 02:45:00
9:55 PM,85.3,61.3,44,30.03,10.0,SW,3.5,-,N/A,,Clear,230,2013-09-11 02:55:00
10:15 PM,84.9,61.2,45,30.03,10.0,Calm,Calm,-,N/A,,Clear,0,2013-09-11 03:15:00
10:35 PM,84.4,61.2,45,30.04,10.0,SW,4.6,-,N/A,,Clear,220,2013-09-11 03:35:00
10:55 PM,84.2,61.3,46,30.04,10.0,SSW,4.6,-,N/A,,Clear,200,2013-09-11 03:55:00
11:15 PM,83.5,61.7,48,30.03,10.0,SW,4.6,-,N/A,,Clear,220,2013-09-11 04:15:00
11:35 PM,82.4,61.9,50,30.03,10.0,SSW,4.6,-,N/A,,Clear,210,2013-09-11 04:35:00
11:55 PM,81.7,62.1,51,30.03,10.0,South,4.6,-,N/A,,Clear,190,2013-09-11 04:55:00